Time;durP1;ratioP1;P1;durP2;ratioP2;P2;SDS_P1;SDS_P2;PMS_P1;PMS_P2;Temp;Humidity;BMP_temperature;BMP_pressure;BME280_temperature;BME280_humidity;BME280_pressure;Samples;Min_cycle;Max_cycle;Signal;HPM_P1;HPM_P2
2024/02/05 00:00:30;;;;;;;5.55;1.58;;;-0.10;99.90;;;;;;5054154;28;20090;-91
2024/02/05 00:02:57;;;;;;;1.73;1.30;;;-0.20;99.90;;;;;;5072572;28;20016;-91
2024/02/05 00:05:25;;;;;;;3.00;1.58;;;-0.30;99.90;;;;;;5087658;28;20476;-90
2024/02/05 00:07:51;;;;;;;4.20;1.17;;;-0.40;99.90;;;;;;5075607;28;20060;-91
2024/02/05 00:10:17;;;;;;;2.35;1.20;;;-0.50;99.90;;;;;;5085554;28;20039;-89
2024/02/05 00:12:44;;;;;;;2.72;1.42;;;-0.60;99.90;;;;;;5095155;28;20005;-90
2024/02/05 00:15:10;;;;;;;2.28;1.20;;;-0.70;99.90;;;;;;5097242;28;20033;-91
2024/02/05 00:17:36;;;;;;;3.25;1.17;;;-0.70;99.90;;;;;;5092780;28;20021;-90
2024/02/05 00:20:01;;;;;;;2.30;1.70;;;-0.70;99.90;;;;;;5087547;28;20039;-88
2024/02/05 00:22:27;;;;;;;5.43;2.45;;;-0.80;99.90;;;;;;5087986;28;20035;-89
2024/02/05 00:24:53;;;;;;;4.25;2.50;;;-0.80;99.90;;;;;;5081241;28;20025;-88
2024/02/05 00:27:19;;;;;;;6.40;3.08;;;-0.80;99.90;;;;;;5090190;28;20064;-89
2024/02/05 00:29:45;;;;;;;4.40;3.00;;;-0.80;99.90;;;;;;5087182;28;20031;-90
2024/02/05 00:32:11;;;;;;;5.53;2.90;;;-0.70;99.90;;;;;;5088377;28;20032;-90
2024/02/05 00:34:38;;;;;;;6.95;3.92;;;-0.70;99.90;;;;;;5082623;28;20024;-89
2024/02/05 00:37:04;;;;;;;9.07;3.58;;;-0.60;99.90;;;;;;5077620;28;20040;-89
2024/02/05 00:39:29;;;;;;;4.55;2.58;;;-0.60;99.90;;;;;;5077397;28;20031;-89
2024/02/05 00:41:55;;;;;;;3.30;2.10;;;-0.60;99.90;;;;;;5070253;28;20486;-89
2024/02/05 00:44:21;;;;;;;4.28;1.88;;;-0.50;99.90;;;;;;5064221;28;20025;-88
2024/02/05 00:46:48;;;;;;;5.38;1.90;;;-0.50;99.90;;;;;;5082409;28;20461;-88
2024/02/05 00:49:14;;;;;;;;;;;-0.50;99.90;;;;;;5082655;28;20020;-88
2024/02/05 00:51:40;;;;;;;5.03;2.05;;;-0.50;99.90;;;;;;5074448;28;19994;-88
2024/02/05 00:54:06;;;;;;;4.78;2.13;;;-0.50;99.90;;;;;;5077581;28;20025;-90
2024/02/05 00:56:33;;;;;;;5.55;2.13;;;-0.50;99.90;;;;;;5073131;28;20127;-87
2024/02/05 00:59:00;;;;;;;6.47;2.42;;;-0.50;99.90;;;;;;5075392;28;20025;-90
2024/02/05 01:01:25;;;;;;;4.32;2.70;;;-0.40;99.90;;;;;;5075047;28;20024;-87
2024/02/05 01:03:51;;;;;;;6.18;2.65;;;-0.40;99.90;;;;;;5078155;28;20043;-88
2024/02/05 01:06:18;;;;;;;8.05;2.33;;;-0.30;99.90;;;;;;5074698;28;20029;-90
2024/02/05 01:08:44;;;;;;;2.78;1.83;;;-0.30;99.90;;;;;;5077216;28;20055;-89
2024/02/05 01:11:10;;;;;;;7.00;2.30;;;-0.30;99.90;;;;;;5076858;28;20066;-89
2024/02/05 01:13:36;;;;;;;4.43;2.30;;;-0.30;99.90;;;;;;5078760;28;20025;-88
2024/02/05 01:16:06;;;;;;;4.53;1.70;;;-0.20;99.90;;;;;;5097354;28;20027;-89
2024/02/05 01:18:31;;;;;;;3.92;1.60;;;-0.20;99.90;;;;;;5090181;28;20025;-87
2024/02/05 01:20:58;;;;;;;4.55;1.85;;;-0.20;99.90;;;;;;5076190;28;20060;-89
2024/02/05 01:23:26;;;;;;;3.63;2.17;;;-0.20;99.90;;;;;;5076658;28;20012;-90
2024/02/05 01:25:52;;;;;;;5.93;2.15;;;-0.20;99.90;;;;;;5087206;28;20051;-90
2024/02/05 01:28:18;;;;;;;6.75;2.25;;;-0.10;99.90;;;;;;5097938;28;20099;-88
2024/02/05 01:30:44;;;;;;;3.33;1.95;;;-0.10;99.90;;;;;;5075869;28;20051;-89
2024/02/05 01:33:12;;;;;;;4.45;1.85;;;-0.10;99.90;;;;;;5085301;28;20116;-90
2024/02/05 01:35:38;;;;;;;2.90;2.22;;;-0.10;99.90;;;;;;5067218;28;20021;-88
2024/02/05 01:38:04;;;;;;;9.82;2.00;;;-0.10;99.90;;;;;;5066679;28;20028;-89
2024/02/05 01:40:30;;;;;;;5.07;2.08;;;0.00;99.90;;;;;;5070035;28;20552;-90
2024/02/05 01:42:56;;;;;;;4.15;2.35;;;0.00;99.90;;;;;;5079945;28;20547;-88
2024/02/05 01:45:22;;;;;;;2.67;2.10;;;0.00;99.90;;;;;;5081350;28;20021;-91
2024/02/05 01:47:48;;;;;;;3.40;1.73;;;0.00;99.90;;;;;;5083958;28;20465;-89
2024/02/05 01:50:15;;;;;;;3.78;1.70;;;0.00;99.90;;;;;;5091565;28;20089;-90
2024/02/05 01:52:47;;;;;;;3.47;2.38;;;-0.10;99.90;;;;;;5078645;28;20028;-89
2024/02/05 01:55:15;;;;;;;3.83;2.30;;;-0.10;99.90;;;;;;5083200;28;20496;-90
2024/02/05 01:57:41;;;;;;;4.78;2.40;;;-0.10;99.90;;;;;;5073415;28;20020;-90
2024/02/05 02:00:10;;;;;;;4.93;2.47;;;-0.10;99.90;;;;;;5082470;28;20029;-88
2024/02/05 02:02:41;;;;;;;7.35;2.35;;;-0.10;99.90;;;;;;5081794;28;20051;-87
2024/02/05 02:05:08;;;;;;;7.60;2.65;;;-0.10;99.90;;;;;;5069317;28;20072;-91
2024/02/05 02:07:34;;;;;;;3.88;1.98;;;-0.20;99.90;;;;;;5079952;28;20572;-90
2024/02/05 02:10:04;;;;;;;3.78;1.92;;;-0.20;99.90;;;;;;5067131;28;20040;-89
2024/02/05 02:12:30;;;;;;;3.80;2.65;;;-0.10;99.90;;;;;;5065385;28;20026;-90
2024/02/05 02:14:56;;;;;;;4.75;2.20;;;-0.10;99.90;;;;;;5073180;28;20533;-91
2024/02/05 02:17:24;;;;;;;5.10;2.38;;;-0.10;99.90;;;;;;5081641;28;20097;-89
2024/02/05 02:19:52;;;;;;;5.15;2.60;;;0.00;99.90;;;;;;5093394;28;20024;-90
2024/02/05 02:22:57;;;;;;;6.78;2.80;;;0.00;99.90;;;;;;5069275;28;20056;-91
2024/02/05 02:25:23;;;;;;;8.23;3.22;;;0.10;99.90;;;;;;5057216;28;20035;-90
2024/02/05 02:27:49;;;;;;;7.47;2.30;;;0.00;99.90;;;;;;5078215;28;20464;-91
2024/02/05 02:30:19;;;;;;;4.05;2.47;;;0.10;99.90;;;;;;5060441;28;20031;-90
2024/02/05 02:33:10;;;;;;;4.13;2.92;;;0.10;99.90;;;;;;5078164;28;20025;-88
2024/02/05 02:35:45;;;;;;;4.70;2.28;;;0.10;99.90;;;;;;5079784;28;20021;-90
2024/02/05 02:38:24;;;;;;;6.30;2.58;;;0.10;99.90;;;;;;5076833;28;20540;-90
2024/02/05 02:40:59;;;;;;;6.40;3.28;;;0.00;99.90;;;;;;5080613;28;20029;-90
2024/02/05 02:43:27;;;;;;;6.78;2.70;;;0.00;99.90;;;;;;5079849;28;20462;-92
2024/02/05 02:45:54;;;;;;;6.28;3.10;;;0.00;99.90;;;;;;5081064;28;20477;-90
2024/02/05 02:48:20;;;;;;;5.80;2.88;;;0.00;99.90;;;;;;5091401;28;20056;-91
2024/02/05 02:50:45;;;;;;;8.50;3.33;;;0.00;99.90;;;;;;5106149;28;20037;-90
2024/02/05 02:53:11;;;;;;;5.30;3.15;;;0.00;99.90;;;;;;5080015;28;20016;-91
2024/02/05 02:55:37;;;;;;;11.82;3.53;;;0.00;99.90;;;;;;5076737;28;20016;-91
2024/02/05 02:58:03;;;;;;;9.57;2.40;;;0.10;99.90;;;;;;5086723;28;20025;-90
2024/02/05 03:00:29;;;;;;;11.18;2.72;;;0.10;99.90;;;;;;5096875;28;20029;-91
2024/02/05 03:02:55;;;;;;;3.92;2.63;;;0.10;99.90;;;;;;5102716;28;20039;-91
2024/02/05 03:05:21;;;;;;;6.45;2.95;;;0.10;99.90;;;;;;5080630;28;20036;-92
2024/02/05 03:07:47;;;;;;;6.78;2.70;;;0.00;99.90;;;;;;5084918;28;20032;-90
2024/02/05 03:10:13;;;;;;;6.13;3.00;;;-0.10;99.90;;;;;;5074335;28;20529;-90
2024/02/05 03:12:39;;;;;;;6.85;3.00;;;-0.10;99.90;;;;;;5073818;28;20058;-89
2024/02/05 03:15:05;;;;;;;6.90;4.20;;;-0.10;99.90;;;;;;5083227;28;20017;-86
2024/02/05 03:17:31;;;;;;;6.45;3.35;;;-0.10;99.90;;;;;;5102769;28;20024;-87
2024/02/05 03:19:57;;;;;;;15.55;4.32;;;0.00;99.90;;;;;;5094557;28;20035;-88
2024/02/05 03:22:23;;;;;;;8.35;3.72;;;0.00;99.90;;;;;;5091458;28;20036;-88
2024/02/05 03:24:49;;;;;;;8.68;4.10;;;0.00;99.90;;;;;;5067011;28;20043;-87
2024/02/05 03:27:15;;;;;;;5.45;2.45;;;0.00;99.90;;;;;;5058392;28;20024;-89
2024/02/05 03:29:41;;;;;;;7.90;3.28;;;0.00;99.90;;;;;;5056940;28;20394;-89
2024/02/05 03:32:07;;;;;;;6.20;3.15;;;0.00;99.90;;;;;;5075187;28;20528;-91
2024/02/05 03:34:33;;;;;;;7.78;3.25;;;0.00;99.90;;;;;;5075256;28;20041;-89
2024/02/05 03:36:59;;;;;;;6.45;3.47;;;-0.10;99.90;;;;;;5075209;28;20044;-87
2024/02/05 03:39:26;;;;;;;5.10;2.47;;;-0.10;99.90;;;;;;5076147;28;20031;-87
2024/02/05 03:41:52;;;;;;;6.90;2.88;;;0.00;99.90;;;;;;5076995;28;20532;-87
2024/02/05 03:44:18;;;;;;;6.53;3.90;;;-0.10;99.90;;;;;;5075280;28;20378;-86
2024/02/05 03:46:44;;;;;;;9.93;4.15;;;0.00;99.90;;;;;;5079466;28;20040;-86
2024/02/05 03:49:10;;;;;;;9.90;4.63;;;0.00;99.90;;;;;;5076640;28;20028;-87
2024/02/05 03:51:36;;;;;;;6.85;2.72;;;0.00;99.90;;;;;;5073200;28;20040;-87
2024/02/05 03:54:04;;;;;;;6.38;3.00;;;0.00;99.90;;;;;;5075757;28;20024;-86
2024/02/05 03:56:30;;;;;;;11.10;3.47;;;0.00;99.90;;;;;;5078719;28;20052;-86
2024/02/05 03:58:56;;;;;;;5.65;3.22;;;0.00;99.90;;;;;;5072155;28;20028;-87
2024/02/05 04:01:23;;;;;;;10.23;3.10;;;0.00;99.90;;;;;;5081922;28;20017;-87
2024/02/05 04:03:49;;;;;;;5.13;2.88;;;0.10;99.90;;;;;;5084647;28;20406;-87
2024/02/05 04:06:15;;;;;;;7.20;2.72;;;0.00;99.90;;;;;;5075777;28;20029;-85
2024/02/05 04:08:40;;;;;;;8.32;2.70;;;0.00;99.90;;;;;;5082104;28;20040;-88
2024/02/05 04:11:07;;;;;;;6.97;2.78;;;0.00;99.90;;;;;;5087221;28;20073;-85
2024/02/05 04:13:33;;;;;;;7.55;3.85;;;0.00;99.90;;;;;;5075196;28;20027;-86
2024/02/05 04:15:59;;;;;;;5.28;2.45;;;0.00;99.90;;;;;;5083221;28;20044;-86
2024/02/05 04:18:25;;;;;;;10.30;2.60;;;0.00;99.90;;;;;;5061843;28;20021;-85
2024/02/05 04:20:56;;;;;;;6.75;2.90;;;0.00;99.90;;;;;;5072172;28;20028;-83
2024/02/05 04:23:25;;;;;;;4.78;2.55;;;0.00;99.90;;;;;;5096666;28;20029;-87
2024/02/05 04:25:52;;;;;;;4.15;2.67;;;0.00;99.90;;;;;;5086346;28;20527;-86
2024/02/05 04:28:22;;;;;;;7.38;3.03;;;0.00;99.90;;;;;;5084900;28;20016;-89
2024/02/05 04:30:50;;;;;;;10.60;3.55;;;-0.10;99.90;;;;;;5075482;28;20102;-87
2024/02/05 04:33:15;;;;;;;13.98;3.20;;;-0.10;99.90;;;;;;5077934;28;20012;-87
2024/02/05 04:35:41;;;;;;;9.35;2.80;;;-0.10;99.90;;;;;;5076912;28;20114;-89
2024/02/05 04:38:07;;;;;;;6.22;2.40;;;-0.10;99.90;;;;;;5080992;28;20107;-87
2024/02/05 04:40:33;;;;;;;17.88;3.08;;;0.00;99.90;;;;;;5081814;28;20071;-89
2024/02/05 04:42:59;;;;;;;9.65;3.25;;;-0.10;99.90;;;;;;5075515;28;20055;-89
2024/02/05 04:45:24;;;;;;;5.72;3.10;;;-0.10;99.90;;;;;;5076689;28;20095;-89
2024/02/05 04:47:50;;;;;;;4.07;2.22;;;-0.10;99.90;;;;;;5077250;28;20112;-88
2024/02/05 04:50:16;;;;;;;5.70;2.70;;;-0.10;99.90;;;;;;5064059;28;20017;-86
2024/02/05 04:52:42;;;;;;;4.68;2.58;;;-0.20;99.90;;;;;;5069143;28;20492;-86
2024/02/05 04:55:08;;;;;;;11.70;3.38;;;-0.20;99.90;;;;;;5078524;28;20027;-87
2024/02/05 04:57:34;;;;;;;5.45;2.85;;;-0.30;99.90;;;;;;5080777;28;20028;-87
2024/02/05 05:00:00;;;;;;;6.13;3.63;;;-0.30;99.90;;;;;;5075228;28;20122;-87
2024/02/05 05:02:25;;;;;;;5.50;4.28;;;-0.30;99.90;;;;;;5088312;28;20039;-87
2024/02/05 05:04:51;;;;;;;8.38;3.05;;;-0.30;99.90;;;;;;5077346;28;20527;-86
2024/02/05 05:07:18;;;;;;;5.93;2.72;;;-0.30;99.90;;;;;;5068065;28;20029;-85
2024/02/05 05:09:43;;;;;;;9.40;3.00;;;-0.30;99.90;;;;;;5068096;28;20699;-86
2024/02/05 05:12:09;;;;;;;10.95;3.97;;;-0.30;99.90;;;;;;5068037;28;20107;-83
2024/02/05 05:14:37;;;;;;;8.23;3.38;;;-0.30;99.90;;;;;;5077890;28;20562;-84
2024/02/05 05:17:03;;;;;;;5.65;4.63;;;-0.40;99.90;;;;;;5070255;28;20470;-85
2024/02/05 05:19:29;;;;;;;11.02;4.43;;;-0.40;99.90;;;;;;5058754;28;20021;-85
2024/02/05 05:21:55;;;;;;;6.97;3.45;;;-0.50;99.90;;;;;;5089306;28;20029;-84
2024/02/05 05:24:21;;;;;;;7.85;3.72;;;-0.50;99.90;;;;;;5074133;28;20099;-84
2024/02/05 05:26:47;;;;;;;8.75;4.82;;;-0.50;99.90;;;;;;5073514;28;20117;-83
2024/02/05 05:29:12;;;;;;;6.70;4.18;;;-0.50;99.90;;;;;;5062668;28;20055;-84
2024/02/05 05:31:38;;;;;;;9.52;4.72;;;-0.50;99.90;;;;;;5072224;28;20031;-85
2024/02/05 05:34:05;;;;;;;14.70;3.97;;;-0.50;99.90;;;;;;5080651;28;20028;-84
2024/02/05 05:36:32;;;;;;;7.45;3.75;;;-0.50;99.90;;;;;;5064551;28;20112;-86
2024/02/05 05:38:57;;;;;;;7.32;4.07;;;-0.50;99.90;;;;;;5073696;28;20481;-84
2024/02/05 05:41:23;;;;;;;9.65;5.22;;;-0.50;99.90;;;;;;5066921;28;20060;-88
2024/02/05 05:43:52;;;;;;;9.90;3.80;;;-0.50;99.90;;;;;;5074484;28;20029;-86
2024/02/05 05:46:18;;;;;;;9.13;3.53;;;-0.40;99.90;;;;;;5067939;28;20027;-86
2024/02/05 05:48:44;;;;;;;9.68;4.93;;;-0.40;99.90;;;;;;5073080;28;20031;-87
2024/02/05 05:51:10;;;;;;;12.63;3.75;;;-0.40;99.90;;;;;;5072883;28;20385;-87
2024/02/05 05:53:36;;;;;;;13.00;5.05;;;-0.30;99.90;;;;;;5074161;28;20019;-88
2024/02/05 05:56:02;;;;;;;7.68;5.07;;;-0.30;99.90;;;;;;5076256;28;20184;-85
2024/02/05 05:58:28;;;;;;;6.43;4.50;;;-0.30;99.90;;;;;;5076177;28;20067;-85
2024/02/05 06:00:53;;;;;;;7.18;3.47;;;-0.20;99.90;;;;;;5073831;28;20043;-85
2024/02/05 06:03:19;;;;;;;7.15;4.57;;;-0.30;99.90;;;;;;5075137;28;20033;-85
2024/02/05 06:05:47;;;;;;;11.57;4.25;;;-0.20;99.90;;;;;;5076734;28;20481;-85
2024/02/05 06:08:13;;;;;;;10.00;3.83;;;-0.30;99.90;;;;;;5084028;28;20043;-88
2024/02/05 06:10:40;;;;;;;9.88;4.57;;;-0.20;99.90;;;;;;5074660;28;20024;-85
2024/02/05 06:13:06;;;;;;;12.52;4.93;;;-0.20;99.90;;;;;;5073853;28;20017;-87
2024/02/05 06:15:32;;;;;;;12.05;6.43;;;-0.10;99.90;;;;;;5076766;28;20093;-86
2024/02/05 06:17:58;;;;;;;10.65;4.68;;;-0.10;99.90;;;;;;5080970;28;20063;-87
2024/02/05 06:20:24;;;;;;;12.90;4.32;;;-0.20;99.90;;;;;;5064672;28;20059;-87
2024/02/05 06:22:50;;;;;;;8.73;4.28;;;-0.20;99.90;;;;;;5074248;28;20025;-86
2024/02/05 06:25:16;;;;;;;12.65;6.40;;;-0.20;99.90;;;;;;5084822;28;20095;-86
2024/02/05 06:27:42;;;;;;;14.50;5.32;;;-0.10;99.90;;;;;;5073309;28;20035;-85
2024/02/05 06:30:08;;;;;;;9.65;5.30;;;-0.10;99.90;;;;;;5076471;28;20035;-87
2024/02/05 06:32:34;;;;;;;14.48;6.03;;;0.00;99.90;;;;;;5062629;28;20017;-86
2024/02/05 06:35:01;;;;;;;8.60;5.03;;;0.00;99.90;;;;;;5078604;28;20039;-88
2024/02/05 06:37:27;;;;;;;5.80;4.57;;;0.00;99.90;;;;;;5073813;28;20439;-88
2024/02/05 06:39:52;;;;;;;8.43;3.03;;;0.10;99.90;;;;;;5063094;28;20101;-89
2024/02/05 06:42:21;;;;;;;6.35;3.22;;;0.10;99.90;;;;;;5076036;28;20385;-87
2024/02/05 06:44:48;;;;;;;4.35;2.72;;;0.00;99.90;;;;;;5075125;28;20028;-90
2024/02/05 06:47:14;;;;;;;;;;;-0.10;99.90;;;;;;5085832;28;20028;-86
2024/02/05 06:49:40;;;;;;;6.10;3.78;;;0.00;99.90;;;;;;5097727;28;19918;-89
2024/02/05 06:52:06;;;;;;;11.85;4.28;;;0.00;99.90;;;;;;5077913;28;20028;-89
2024/02/05 06:54:32;;;;;;;9.15;4.40;;;0.00;99.90;;;;;;5061565;28;20098;-90
2024/02/05 06:57:00;;;;;;;11.90;4.90;;;0.10;99.90;;;;;;5070980;28;20044;-87
2024/02/05 06:59:26;;;;;;;16.23;6.07;;;0.20;99.90;;;;;;5062495;28;20029;-86
2024/02/05 07:01:55;;;;;;;10.05;5.47;;;0.30;99.90;;;;;;5087884;28;20050;-88
2024/02/05 07:04:21;;;;;;;15.93;5.30;;;0.40;99.90;;;;;;5068322;28;20025;-87
2024/02/05 07:06:47;;;;;;;17.50;4.63;;;0.30;99.90;;;;;;5074559;28;20025;-86
2024/02/05 07:09:13;;;;;;;8.98;5.30;;;0.30;99.90;;;;;;5069291;28;20049;-89
2024/02/05 07:11:39;;;;;;;13.70;5.60;;;0.30;99.90;;;;;;5075277;28;20095;-82
2024/02/05 07:14:05;;;;;;;13.45;6.43;;;0.30;99.90;;;;;;5076120;28;20049;-79
2024/02/05 07:16:31;;;;;;;9.52;4.45;;;0.30;99.90;;;;;;5074018;28;20449;-80
2024/02/05 07:18:56;;;;;;;11.07;5.43;;;0.40;99.90;;;;;;5075997;28;20095;-79
2024/02/05 07:21:22;;;;;;;18.35;7.18;;;0.40;99.90;;;;;;5074079;28;20391;-80
2024/02/05 07:23:48;;;;;;;18.27;6.22;;;0.50;99.90;;;;;;5072217;28;20446;-80
2024/02/05 07:26:14;;;;;;;14.18;5.28;;;0.50;99.90;;;;;;5074832;28;20028;-79
2024/02/05 07:28:41;;;;;;;6.65;3.75;;;0.60;99.90;;;;;;5075005;28;20052;-80
2024/02/05 07:31:08;;;;;;;;;;;0.60;99.90;;;;;;5070637;28;20029;-80
2024/02/05 07:33:34;;;;;;;6.70;3.45;;;0.60;99.90;;;;;;5070421;28;19913;-83
2024/02/05 07:35:59;;;;;;;14.88;3.47;;;0.50;99.90;;;;;;5070793;28;20036;-82
2024/02/05 07:38:25;;;;;;;7.55;2.55;;;0.60;99.90;;;;;;5086500;28;20481;-82
2024/02/05 07:40:51;;;;;;;7.72;3.47;;;0.60;99.90;;;;;;5079154;28;20052;-81
2024/02/05 07:43:17;;;;;;;8.43;3.20;;;0.60;99.90;;;;;;5074465;28;21581;-79
2024/02/05 07:45:43;;;;;;;8.55;3.08;;;0.60;99.90;;;;;;5075849;28;20021;-82
2024/02/05 07:48:09;;;;;;;10.15;3.50;;;0.60;99.90;;;;;;5076530;28;20115;-82
2024/02/05 07:50:36;;;;;;;8.20;3.47;;;0.50;99.90;;;;;;5068351;28;20021;-82
2024/02/05 07:53:01;;;;;;;6.35;3.40;;;0.40;99.90;;;;;;5075672;28;20035;-82
2024/02/05 07:55:28;;;;;;;7.50;3.25;;;0.40;99.90;;;;;;5077619;28;20021;-82
2024/02/05 07:57:53;;;;;;;13.77;4.15;;;0.50;99.90;;;;;;5070634;28;20072;-82
2024/02/05 08:00:19;;;;;;;10.70;4.30;;;0.60;99.90;;;;;;5071774;28;20048;-81
2024/02/05 08:02:45;;;;;;;5.93;3.30;;;0.60;99.90;;;;;;5065669;28;20024;-81
2024/02/05 08:05:11;;;;;;;9.68;4.18;;;0.60;99.90;;;;;;5068022;28;20033;-83
2024/02/05 08:07:37;;;;;;;9.82;4.10;;;0.60;99.90;;;;;;5070603;28;20056;-84
2024/02/05 08:10:04;;;;;;;13.77;7.45;;;0.60;99.90;;;;;;5072648;28;20073;-83
2024/02/05 08:12:30;;;;;;;6.37;4.03;;;0.70;99.90;;;;;;5068743;28;20033;-82
2024/02/05 08:14:56;;;;;;;12.95;4.75;;;0.70;99.90;;;;;;5069935;28;20450;-85
2024/02/05 08:17:22;;;;;;;15.82;6.30;;;0.60;99.90;;;;;;5069078;28;20052;-84
2024/02/05 08:19:48;;;;;;;8.27;3.63;;;0.50;99.90;;;;;;5069068;28;20036;-83
2024/02/05 08:22:14;;;;;;;12.23;3.95;;;0.50;99.90;;;;;;5069611;28;20063;-87
2024/02/05 08:24:40;;;;;;;10.27;4.82;;;0.50;99.90;;;;;;5066050;28;20024;-82
2024/02/05 08:27:06;;;;;;;10.80;4.10;;;0.60;99.90;;;;;;5071959;28;20025;-84
2024/02/05 08:29:32;;;;;;;6.57;3.95;;;0.70;99.90;;;;;;5072193;28;20027;-81
2024/02/05 08:31:58;;;;;;;7.22;3.30;;;0.70;99.90;;;;;;5073256;28;20100;-81
2024/02/05 08:34:24;;;;;;;5.88;3.25;;;0.80;99.90;;;;;;5082805;28;20031;-83
2024/02/05 08:36:50;;;;;;;8.60;3.40;;;0.80;99.90;;;;;;5083236;28;20043;-83
2024/02/05 08:39:15;;;;;;;7.63;3.35;;;0.80;99.90;;;;;;5072512;28;20071;-83
2024/02/05 08:41:41;;;;;;;9.10;3.55;;;0.70;99.90;;;;;;5071053;28;20036;-82
2024/02/05 08:44:07;;;;;;;9.93;3.28;;;0.70;99.90;;;;;;5061554;28;20033;-82
2024/02/05 08:46:33;;;;;;;5.38;2.80;;;0.80;99.90;;;;;;5074000;28;20111;-84
2024/02/05 08:48:59;;;;;;;9.38;2.90;;;0.90;99.90;;;;;;5075906;28;20028;-83
2024/02/05 08:51:29;;;;;;;8.60;2.58;;;1.00;99.90;;;;;;5073095;28;20470;-82
2024/02/05 08:53:55;;;;;;;7.28;2.92;;;1.00;99.90;;;;;;5074031;28;20028;-84
2024/02/05 08:56:21;;;;;;;5.90;2.60;;;1.00;99.90;;;;;;5072151;28;20029;-83
2024/02/05 08:58:47;;;;;;;6.50;3.20;;;1.10;99.90;;;;;;5070955;28;20100;-81
2024/02/05 09:01:13;;;;;;;9.35;3.22;;;1.10;99.90;;;;;;5067144;28;20025;-83
2024/02/05 09:03:40;;;;;;;7.82;4.45;;;1.10;99.90;;;;;;5087014;28;20029;-83
2024/02/05 09:06:06;;;;;;;6.05;3.05;;;1.00;99.90;;;;;;5083849;28;20021;-81
2024/02/05 09:08:36;;;;;;;10.18;3.90;;;1.00;99.90;;;;;;5072786;28;20062;-82
2024/02/05 09:11:04;;;;;;;3.53;2.40;;;1.10;99.90;;;;;;5072577;28;20500;-83
2024/02/05 09:13:31;;;;;;;5.45;3.53;;;1.10;99.90;;;;;;5073695;28;20032;-86
2024/02/05 09:15:57;;;;;;;4.13;2.40;;;1.10;99.70;;;;;;5072644;28;20032;-83
2024/02/05 09:18:24;;;;;;;5.75;3.08;;;1.10;99.50;;;;;;5063174;28;20021;-81
2024/02/05 09:20:50;;;;;;;5.40;3.22;;;1.00;99.40;;;;;;5068471;28;20035;-82
2024/02/05 09:23:18;;;;;;;6.68;3.35;;;1.00;99.40;;;;;;5071708;28;20094;-84
2024/02/05 09:25:44;;;;;;;6.45;2.95;;;1.10;99.50;;;;;;5079591;28;20055;-80
2024/02/05 09:28:10;;;;;;;8.07;3.95;;;1.10;99.40;;;;;;5073431;28;20021;-83
2024/02/05 09:30:38;;;;;;;6.10;3.22;;;1.20;99.30;;;;;;5071639;28;20017;-81
2024/02/05 09:33:05;;;;;;;6.68;3.90;;;1.20;99.40;;;;;;5061983;28;20036;-81
2024/02/05 09:35:31;;;;;;;9.77;2.70;;;1.40;99.30;;;;;;5069552;28;20550;-84
2024/02/05 09:37:57;;;;;;;10.85;3.38;;;1.50;99.30;;;;;;5067600;28;20025;-83
2024/02/05 09:40:25;;;;;;;11.13;5.20;;;1.60;99.20;;;;;;5066215;28;20136;-85
2024/02/05 09:42:50;;;;;;;;;;;1.60;99.20;;;;;;5075377;28;20546;-85
2024/02/05 09:45:20;;;;;;;11.25;3.80;;;1.50;99.10;;;;;;5076536;28;19905;-83
2024/02/05 09:47:47;;;;;;;7.10;3.53;;;1.60;99.10;;;;;;5081173;28;20072;-88
2024/02/05 09:50:14;;;;;;;7.88;3.63;;;1.60;99.00;;;;;;5076019;28;20024;-88
2024/02/05 09:52:42;;;;;;;8.80;3.42;;;1.50;98.90;;;;;;5074701;28;20020;-87
2024/02/05 09:55:12;;;;;;;14.68;4.47;;;1.60;98.80;;;;;;5073331;28;20433;-80
2024/02/05 09:57:39;;;;;;;9.60;3.50;;;1.40;98.60;;;;;;5072194;28;20032;-85
2024/02/05 10:00:05;;;;;;;;;;;1.30;98.80;;;;;;5070425;28;20055;-82
2024/02/05 10:02:34;;;;;;;9.15;3.72;;;1.20;99.00;;;;;;5070965;28;19904;-84
2024/02/05 10:05:01;;;;;;;14.65;4.20;;;1.30;99.00;;;;;;5072171;28;20025;-85
2024/02/05 10:07:31;;;;;;;8.38;3.00;;;1.30;99.10;;;;;;5072670;28;20028;-83
2024/02/05 10:10:01;;;;;;;5.80;3.33;;;1.20;99.00;;;;;;5072853;28;20054;-84
2024/02/05 10:12:31;;;;;;;14.20;4.00;;;1.00;99.20;;;;;;5073153;28;20496;-82
2024/02/05 10:14:59;;;;;;;7.38;3.13;;;1.00;99.40;;;;;;5062427;28;20025;-84
2024/02/05 10:17:26;;;;;;;5.90;3.80;;;0.90;99.30;;;;;;5073032;28;20032;-85
2024/02/05 10:19:52;;;;;;;3.90;2.20;;;0.90;99.30;;;;;;5076402;28;20048;-84
2024/02/05 10:22:17;;;;;;;7.22;3.25;;;0.80;99.40;;;;;;5077793;28;20531;-84
2024/02/05 10:24:43;;;;;;;6.60;3.90;;;0.80;99.30;;;;;;5076954;28;20027;-83
2024/02/05 10:27:16;;;;;;;8.60;3.10;;;0.80;99.30;;;;;;5077734;28;20024;-85
2024/02/05 10:29:42;;;;;;;6.07;3.55;;;0.90;99.50;;;;;;5080666;28;20028;-85
2024/02/05 10:32:08;;;;;;;5.22;3.25;;;1.00;99.20;;;;;;5081520;28;20108;-84
2024/02/05 10:34:34;;;;;;;7.32;4.10;;;1.00;99.00;;;;;;5074577;28;20032;-83
2024/02/05 10:37:08;;;;;;;7.00;3.88;;;1.00;99.10;;;;;;5086129;28;20401;-85
2024/02/05 10:39:34;;;;;;;10.30;4.60;;;1.10;99.30;;;;;;5073815;28;20104;-85
2024/02/05 10:42:00;;;;;;;6.13;3.65;;;1.30;99.20;;;;;;5068153;28;20020;-88
2024/02/05 10:44:26;;;;;;;7.65;4.32;;;1.30;99.20;;;;;;5073151;28;20024;-83
2024/02/05 10:46:51;;;;;;;12.13;4.30;;;1.40;99.20;;;;;;5081061;28;20021;-91
2024/02/05 10:49:17;;;;;;;10.20;4.78;;;1.30;99.00;;;;;;5080055;28;20082;-83
2024/02/05 10:51:44;;;;;;;9.88;4.15;;;1.30;99.00;;;;;;5083197;28;20428;-84
2024/02/05 10:54:11;;;;;;;9.75;4.18;;;1.30;98.90;;;;;;5086297;28;20025;-85
2024/02/05 10:56:41;;;;;;;9.73;3.90;;;1.40;98.90;;;;;;5079350;28;20046;-83
2024/02/05 10:59:10;;;;;;;7.47;4.97;;;1.50;98.70;;;;;;5086888;28;20009;-84
2024/02/05 11:01:48;;;;;;;12.07;4.57;;;1.60;98.70;;;;;;5077741;28;20029;-84
2024/02/05 11:04:17;;;;;;;9.65;3.97;;;1.70;98.50;;;;;;5076929;28;20044;-85
2024/02/05 11:06:49;;;;;;;5.80;3.22;;;1.60;98.40;;;;;;5079288;28;20055;-84
2024/02/05 11:09:16;;;;;;;11.10;3.65;;;1.60;98.40;;;;;;5072549;28;20064;-84
2024/02/05 11:11:47;;;;;;;5.35;3.30;;;1.50;98.30;;;;;;5073118;28;20034;-83
2024/02/05 11:14:17;;;;;;;9.48;4.25;;;1.50;98.00;;;;;;5082570;28;20030;-84
2024/02/05 11:16:44;;;;;;;10.10;3.15;;;1.50;98.00;;;;;;5082810;28;20035;-84
2024/02/05 11:19:14;;;;;;;6.65;3.03;;;1.50;97.80;;;;;;5081165;28;20477;-82
2024/02/05 11:21:46;;;;;;;6.80;3.50;;;1.50;97.50;;;;;;5076259;28;20028;-82
2024/02/05 11:24:16;;;;;;;8.35;3.50;;;1.30;97.40;;;;;;5075460;28;20021;-84
2024/02/05 11:26:43;;;;;;;11.38;3.00;;;1.30;97.40;;;;;;5074310;28;20055;-82
2024/02/05 11:29:09;;;;;;;9.45;3.60;;;1.20;97.40;;;;;;5071515;28;20383;-85
2024/02/05 11:31:37;;;;;;;7.82;3.97;;;1.20;97.40;;;;;;5075057;28;20444;-84
2024/02/05 11:34:05;;;;;;;7.15;3.92;;;1.20;97.40;;;;;;5062300;28;20033;-83
2024/02/05 11:36:31;;;;;;;7.20;3.83;;;1.20;97.40;;;;;;5075023;28;20361;-85
2024/02/05 11:39:03;;;;;;;6.05;3.25;;;1.10;97.40;;;;;;5074827;28;20017;-83
2024/02/05 11:41:30;;;;;;;9.45;4.60;;;1.10;97.30;;;;;;5073555;28;20501;-83
2024/02/05 11:44:05;;;;;;;4.78;2.40;;;1.20;97.20;;;;;;5074910;28;20048;-83
2024/02/05 11:46:36;;;;;;;4.78;2.75;;;1.10;97.00;;;;;;5065168;28;20032;-88
2024/02/05 11:49:02;;;;;;;4.07;2.45;;;1.10;96.80;;;;;;5065744;28;20631;-84
2024/02/05 11:51:29;;;;;;;7.72;3.15;;;1.00;96.40;;;;;;5088972;28;20500;-84
2024/02/05 11:53:56;;;;;;;10.05;3.80;;;1.00;96.40;;;;;;5073505;28;20413;-83
2024/02/05 11:56:22;;;;;;;5.53;2.03;;;1.10;96.30;;;;;;5078360;28;20171;-82
2024/02/05 11:58:49;;;;;;;6.30;2.78;;;1.10;96.00;;;;;;5076151;28;20088;-80
2024/02/05 12:01:16;;;;;;;16.15;4.15;;;1.10;95.90;;;;;;5075782;28;20024;-83
2024/02/05 12:03:46;;;;;;;5.38;2.38;;;1.30;96.10;;;;;;5081404;28;20042;-83
2024/02/05 12:06:14;;;;;;;6.72;2.80;;;1.40;95.90;;;;;;5080072;28;20106;-85
2024/02/05 12:08:40;;;;;;;;;;;1.40;95.70;;;;;;5075963;28;20401;-84
2024/02/05 12:11:06;;;;;;;11.73;3.05;;;1.30;95.70;;;;;;5073886;28;19966;-85
2024/02/05 12:13:34;;;;;;;7.93;2.72;;;1.20;95.30;;;;;;5075450;28;20037;-84
2024/02/05 12:16:13;;;;;;;9.85;3.63;;;1.10;95.40;;;;;;5074289;28;20036;-85
2024/02/05 12:18:41;;;;;;;10.00;3.03;;;0.90;95.30;;;;;;5074987;28;20032;-84
2024/02/05 12:21:09;;;;;;;5.93;3.42;;;0.80;95.30;;;;;;5062055;28;20487;-84
2024/02/05 12:23:36;;;;;;;5.85;2.33;;;0.80;95.50;;;;;;5087182;28;20117;-85
2024/02/05 12:26:03;;;;;;;11.20;4.32;;;0.70;95.60;;;;;;5068811;28;20024;-87
2024/02/05 12:28:30;;;;;;;5.53;2.50;;;0.70;95.70;;;;;;5073721;28;20799;-85
2024/02/05 12:30:57;;;;;;;2.55;1.90;;;0.70;95.50;;;;;;5071978;28;20088;-84
2024/02/05 12:33:23;;;;;;;5.65;2.28;;;0.60;95.60;;;;;;5074578;28;20021;-84
2024/02/05 12:36:02;;;;;;;4.63;2.20;;;0.50;95.50;;;;;;5079623;28;20122;-86
2024/02/05 12:38:29;;;;;;;8.30;2.38;;;0.50;95.70;;;;;;5080383;28;20033;-83
2024/02/05 12:40:56;;;;;;;3.00;2.03;;;0.50;95.70;;;;;;5072649;28;20078;-83
2024/02/05 12:43:29;;;;;;;4.07;2.35;;;0.50;95.60;;;;;;5073897;28;20032;-85
2024/02/05 12:45:56;;;;;;;7.20;2.42;;;0.60;95.70;;;;;;5073287;28;20103;-86
2024/02/05 12:48:22;;;;;;;4.07;1.83;;;0.70;95.40;;;;;;5076420;28;20424;-84
2024/02/05 12:50:54;;;;;;;6.85;3.35;;;0.80;95.30;;;;;;5081728;28;20020;-86